sensor_id;sensor_type;location;lat;lon;timestamp;temperature;humidity
28614;DHT22;15806;53.548;9.964;2023-06-10T00:01:13;15.20;99.90
28614;DHT22;15806;53.548;9.964;2023-06-10T00:02:53;15.20;99.90
28614;DHT22;15806;53.548;9.964;2023-06-10T00:04:34;15.20;99.90
28614;DHT22;15806;53.548;9.964;2023-06-10T00:06:14;15.10;99.90
28614;DHT22;15806;53.548;9.964;2023-06-10T00:07:55;15.10;99.90
28614;DHT22;15806;53.548;9.964;2023-06-10T00:09:36;15.10;99.90
28614;DHT22;15806;53.548;9.964;2023-06-10T00:11:16;15.10;99.90
28614;DHT22;15806;53.548;9.964;2023-06-10T00:12:57;15.10;99.90
28614;DHT22;15806;53.548;9.964;2023-06-10T00:14:38;15.10;99.90
28614;DHT22;15806;53.548;9.964;2023-06-10T00:16:18;15.00;99.90
28614;DHT22;15806;53.548;9.964;2023-06-10T00:17:58;15.00;99.90
28614;DHT22;15806;53.548;9.964;2023-06-10T00:19:39;15.00;99.90
28614;DHT22;15806;53.548;9.964;2023-06-10T00:21:19;15.00;99.90
28614;DHT22;15806;53.548;9.964;2023-06-10T00:23:00;14.90;99.90
28614;DHT22;15806;53.548;9.964;2023-06-10T00:24:41;14.90;99.90
28614;DHT22;15806;53.548;9.964;2023-06-10T00:26:22;14.90;99.90
28614;DHT22;15806;53.548;9.964;2023-06-10T00:28:02;14.90;99.90
28614;DHT22;15806;53.548;9.964;2023-06-10T00:29:42;14.80;99.90
28614;DHT22;15806;53.548;9.964;2023-06-10T00:31:23;14.70;99.90
28614;DHT22;15806;53.548;9.964;2023-06-10T00:33:03;14.70;99.90
28614;DHT22;15806;53.548;9.964;2023-06-10T00:34:44;14.70;99.90
28614;DHT22;15806;53.548;9.964;2023-06-10T00:36:24;14.60;99.90
28614;DHT22;15806;53.548;9.964;2023-06-10T00:38:05;14.60;99.90
28614;DHT22;15806;53.548;9.964;2023-06-10T00:39:45;14.60;99.90
28614;DHT22;15806;53.548;9.964;2023-06-10T00:41:25;14.60;99.90
28614;DHT22;15806;53.548;9.964;2023-06-10T00:43:06;14.60;99.90
28614;DHT22;15806;53.548;9.964;2023-06-10T00:44:46;14.60;99.90
28614;DHT22;15806;53.548;9.964;2023-06-10T00:46:27;14.50;99.90
28614;DHT22;15806;53.548;9.964;2023-06-10T00:48:07;14.50;99.90
28614;DHT22;15806;53.548;9.964;2023-06-10T00:49:49;14.40;99.90
28614;DHT22;15806;53.548;9.964;2023-06-10T00:51:30;14.40;99.90
28614;DHT22;15806;53.548;9.964;2023-06-10T00:53:10;14.40;99.90
28614;DHT22;15806;53.548;9.964;2023-06-10T00:54:51;14.20;99.90
28614;DHT22;15806;53.548;9.964;2023-06-10T00:56:31;14.30;99.90
28614;DHT22;15806;53.548;9.964;2023-06-10T00:58:12;14.30;99.90
28614;DHT22;15806;53.548;9.964;2023-06-10T00:59:54;14.30;99.90
28614;DHT22;15806;53.548;9.964;2023-06-10T01:01:34;14.20;99.90
28614;DHT22;15806;53.548;9.964;2023-06-10T01:03:15;14.30;99.90
28614;DHT22;15806;53.548;9.964;2023-06-10T01:04:55;14.20;99.90
28614;DHT22;15806;53.548;9.964;2023-06-10T01:06:36;14.20;99.90
28614;DHT22;15806;53.548;9.964;2023-06-10T01:08:24;14.00;99.90
28614;DHT22;15806;53.548;9.964;2023-06-10T01:10:20;14.10;99.90
28614;DHT22;15806;53.548;9.964;2023-06-10T01:13:43;14.10;99.90
28614;DHT22;15806;53.548;9.964;2023-06-10T01:15:24;14.10;99.90
28614;DHT22;15806;53.548;9.964;2023-06-10T01:17:06;14.10;99.90
28614;DHT22;15806;53.548;9.964;2023-06-10T01:18:47;14.10;99.90
28614;DHT22;15806;53.548;9.964;2023-06-10T01:20:28;14.10;99.90
28614;DHT22;15806;53.548;9.964;2023-06-10T01:22:09;14.10;99.90
28614;DHT22;15806;53.548;9.964;2023-06-10T01:23:50;14.10;99.90
28614;DHT22;15806;53.548;9.964;2023-06-10T01:25:30;14.10;99.90
28614;DHT22;15806;53.548;9.964;2023-06-10T01:27:12;14.00;99.90
28614;DHT22;15806;53.548;9.964;2023-06-10T01:28:54;14.00;99.90
28614;DHT22;15806;53.548;9.964;2023-06-10T01:30:40;14.00;99.90
28614;DHT22;15806;53.548;9.964;2023-06-10T01:32:33;14.00;99.90
28614;DHT22;15806;53.548;9.964;2023-06-10T01:34:16;14.00;99.90
28614;DHT22;15806;53.548;9.964;2023-06-10T01:35:57;14.00;99.90
28614;DHT22;15806;53.548;9.964;2023-06-10T01:37:38;13.90;99.90
28614;DHT22;15806;53.548;9.964;2023-06-10T01:39:20;13.90;99.90
28614;DHT22;15806;53.548;9.964;2023-06-10T01:41:02;13.90;99.90
28614;DHT22;15806;53.548;9.964;2023-06-10T01:42:43;13.90;99.90
28614;DHT22;15806;53.548;9.964;2023-06-10T01:44:23;13.90;99.90
28614;DHT22;15806;53.548;9.964;2023-06-10T01:46:04;13.90;99.90
28614;DHT22;15806;53.548;9.964;2023-06-10T01:47:45;13.80;99.90
28614;DHT22;15806;53.548;9.964;2023-06-10T01:49:25;13.90;99.90
28614;DHT22;15806;53.548;9.964;2023-06-10T01:51:05;13.90;99.90
28614;DHT22;15806;53.548;9.964;2023-06-10T01:52:46;13.80;99.90
28614;DHT22;15806;53.548;9.964;2023-06-10T01:54:26;13.80;99.90
28614;DHT22;15806;53.548;9.964;2023-06-10T01:56:07;13.80;99.90
28614;DHT22;15806;53.548;9.964;2023-06-10T01:57:47;13.80;99.90
28614;DHT22;15806;53.548;9.964;2023-06-10T01:59:27;13.80;99.90
28614;DHT22;15806;53.548;9.964;2023-06-10T02:01:08;13.80;99.90
28614;DHT22;15806;53.548;9.964;2023-06-10T02:02:48;13.80;99.90
28614;DHT22;15806;53.548;9.964;2023-06-10T02:04:29;13.80;99.90
28614;DHT22;15806;53.548;9.964;2023-06-10T02:06:09;13.80;99.90
28614;DHT22;15806;53.548;9.964;2023-06-10T02:07:49;13.80;99.90
28614;DHT22;15806;53.548;9.964;2023-06-10T02:09:30;13.80;99.90
28614;DHT22;15806;53.548;9.964;2023-06-10T02:11:10;13.80;99.90
28614;DHT22;15806;53.548;9.964;2023-06-10T02:12:51;13.70;99.90
28614;DHT22;15806;53.548;9.964;2023-06-10T02:14:32;13.70;99.90
28614;DHT22;15806;53.548;9.964;2023-06-10T02:16:12;13.80;99.90
28614;DHT22;15806;53.548;9.964;2023-06-10T02:17:53;13.70;99.90
28614;DHT22;15806;53.548;9.964;2023-06-10T02:19:33;13.70;99.90
28614;DHT22;15806;53.548;9.964;2023-06-10T02:21:14;13.60;99.90
28614;DHT22;15806;53.548;9.964;2023-06-10T02:22:54;13.70;99.90
28614;DHT22;15806;53.548;9.964;2023-06-10T02:24:35;13.70;99.90
28614;DHT22;15806;53.548;9.964;2023-06-10T02:26:16;13.70;99.90
28614;DHT22;15806;53.548;9.964;2023-06-10T02:27:56;13.70;99.90
28614;DHT22;15806;53.548;9.964;2023-06-10T02:29:37;13.60;99.90
28614;DHT22;15806;53.548;9.964;2023-06-10T02:31:17;13.50;99.90
28614;DHT22;15806;53.548;9.964;2023-06-10T02:32:58;13.60;99.90
28614;DHT22;15806;53.548;9.964;2023-06-10T02:34:38;13.60;99.90
28614;DHT22;15806;53.548;9.964;2023-06-10T02:38:19;13.60;99.90
28614;DHT22;15806;53.548;9.964;2023-06-10T02:40:06;13.70;99.90
28614;DHT22;15806;53.548;9.964;2023-06-10T02:41:47;13.60;99.90
28614;DHT22;15806;53.548;9.964;2023-06-10T02:43:27;13.60;99.90
28614;DHT22;15806;53.548;9.964;2023-06-10T02:45:08;13.70;99.90
28614;DHT22;15806;53.548;9.964;2023-06-10T02:46:48;13.70;99.90
28614;DHT22;15806;53.548;9.964;2023-06-10T02:48:28;13.70;99.90
28614;DHT22;15806;53.548;9.964;2023-06-10T02:50:09;13.60;99.90
28614;DHT22;15806;53.548;9.964;2023-06-10T02:51:50;13.60;99.90
28614;DHT22;15806;53.548;9.964;2023-06-10T02:53:30;13.60;99.90
28614;DHT22;15806;53.548;9.964;2023-06-10T02:55:11;13.60;99.90
28614;DHT22;15806;53.548;9.964;2023-06-10T02:56:51;13.60;99.90
28614;DHT22;15806;53.548;9.964;2023-06-10T02:58:32;13.60;99.90
28614;DHT22;15806;53.548;9.964;2023-06-10T03:00:12;13.60;99.90
28614;DHT22;15806;53.548;9.964;2023-06-10T03:01:53;13.60;99.90
28614;DHT22;15806;53.548;9.964;2023-06-10T03:03:33;13.60;99.90
28614;DHT22;15806;53.548;9.964;2023-06-10T03:05:14;13.60;99.90
28614;DHT22;15806;53.548;9.964;2023-06-10T03:06:54;13.70;99.90
28614;DHT22;15806;53.548;9.964;2023-06-10T03:08:35;13.60;99.90
28614;DHT22;15806;53.548;9.964;2023-06-10T03:10:15;13.60;99.90
28614;DHT22;15806;53.548;9.964;2023-06-10T03:11:56;13.60;99.90
28614;DHT22;15806;53.548;9.964;2023-06-10T03:13:38;13.70;99.90
28614;DHT22;15806;53.548;9.964;2023-06-10T03:15:18;13.60;99.90
28614;DHT22;15806;53.548;9.964;2023-06-10T03:16:59;13.60;99.90
28614;DHT22;15806;53.548;9.964;2023-06-10T03:18:39;13.70;99.90
28614;DHT22;15806;53.548;9.964;2023-06-10T03:20:19;13.60;99.90
28614;DHT22;15806;53.548;9.964;2023-06-10T03:22:33;13.70;99.90
28614;DHT22;15806;53.548;9.964;2023-06-10T03:24:06;13.60;99.90
28614;DHT22;15806;53.548;9.964;2023-06-10T03:25:47;13.70;99.90
28614;DHT22;15806;53.548;9.964;2023-06-10T03:27:27;13.60;99.90
28614;DHT22;15806;53.548;9.964;2023-06-10T03:29:08;13.60;99.90
28614;DHT22;15806;53.548;9.964;2023-06-10T03:30:48;13.70;99.90
28614;DHT22;15806;53.548;9.964;2023-06-10T03:32:28;13.70;99.90
28614;DHT22;15806;53.548;9.964;2023-06-10T03:34:09;13.60;99.90
28614;DHT22;15806;53.548;9.964;2023-06-10T03:35:50;13.60;99.90
28614;DHT22;15806;53.548;9.964;2023-06-10T03:37:30;13.70;99.90
28614;DHT22;15806;53.548;9.964;2023-06-10T03:39:10;13.80;99.90
28614;DHT22;15806;53.548;9.964;2023-06-10T03:40:51;13.80;99.90
28614;DHT22;15806;53.548;9.964;2023-06-10T03:42:31;13.70;99.90
28614;DHT22;15806;53.548;9.964;2023-06-10T03:44:12;13.80;99.90
28614;DHT22;15806;53.548;9.964;2023-06-10T03:45:52;13.70;99.90
28614;DHT22;15806;53.548;9.964;2023-06-10T03:47:33;13.70;99.90
28614;DHT22;15806;53.548;9.964;2023-06-10T03:49:14;13.70;99.90
28614;DHT22;15806;53.548;9.964;2023-06-10T03:50:54;13.70;99.90
28614;DHT22;15806;53.548;9.964;2023-06-10T03:52:35;13.70;99.90
28614;DHT22;15806;53.548;9.964;2023-06-10T03:54:16;13.80;99.90
28614;DHT22;15806;53.548;9.964;2023-06-10T03:55:56;13.70;99.90
28614;DHT22;15806;53.548;9.964;2023-06-10T03:57:37;13.80;99.90
28614;DHT22;15806;53.548;9.964;2023-06-10T03:59:17;13.80;99.90
28614;DHT22;15806;53.548;9.964;2023-06-10T04:00:57;13.80;99.90
28614;DHT22;15806;53.548;9.964;2023-06-10T04:02:38;13.80;99.90
28614;DHT22;15806;53.548;9.964;2023-06-10T04:04:18;13.80;99.90
28614;DHT22;15806;53.548;9.964;2023-06-10T04:05:59;13.80;99.90
28614;DHT22;15806;53.548;9.964;2023-06-10T04:07:39;13.80;99.90
28614;DHT22;15806;53.548;9.964;2023-06-10T04:09:20;13.80;99.90
28614;DHT22;15806;53.548;9.964;2023-06-10T04:11:00;13.90;99.90
28614;DHT22;15806;53.548;9.964;2023-06-10T04:12:41;13.90;99.90
28614;DHT22;15806;53.548;9.964;2023-06-10T04:14:21;14.00;99.90
28614;DHT22;15806;53.548;9.964;2023-06-10T04:16:02;14.00;99.90
28614;DHT22;15806;53.548;9.964;2023-06-10T04:17:42;14.10;99.90
28614;DHT22;15806;53.548;9.964;2023-06-10T04:19:22;14.00;99.90
28614;DHT22;15806;53.548;9.964;2023-06-10T04:21:03;13.90;99.90
28614;DHT22;15806;53.548;9.964;2023-06-10T04:22:43;14.00;99.90
28614;DHT22;15806;53.548;9.964;2023-06-10T04:24:24;14.10;99.90
28614;DHT22;15806;53.548;9.964;2023-06-10T04:26:04;14.10;99.90
28614;DHT22;15806;53.548;9.964;2023-06-10T04:27:44;14.10;99.90
28614;DHT22;15806;53.548;9.964;2023-06-10T04:29:25;14.20;99.90
28614;DHT22;15806;53.548;9.964;2023-06-10T04:31:05;14.20;99.90
28614;DHT22;15806;53.548;9.964;2023-06-10T04:32:46;14.10;99.90
28614;DHT22;15806;53.548;9.964;2023-06-10T04:34:26;14.20;99.90
28614;DHT22;15806;53.548;9.964;2023-06-10T04:36:06;14.20;99.90
28614;DHT22;15806;53.548;9.964;2023-06-10T04:37:47;14.20;99.90
28614;DHT22;15806;53.548;9.964;2023-06-10T04:39:27;14.20;99.90
28614;DHT22;15806;53.548;9.964;2023-06-10T04:41:08;14.20;99.90
28614;DHT22;15806;53.548;9.964;2023-06-10T04:42:48;14.20;99.90
28614;DHT22;15806;53.548;9.964;2023-06-10T04:44:28;14.30;99.90
28614;DHT22;15806;53.548;9.964;2023-06-10T04:46:09;14.30;99.90
28614;DHT22;15806;53.548;9.964;2023-06-10T04:47:49;14.30;99.90
28614;DHT22;15806;53.548;9.964;2023-06-10T04:49:30;14.30;99.90
28614;DHT22;15806;53.548;9.964;2023-06-10T04:51:10;14.40;99.90
28614;DHT22;15806;53.548;9.964;2023-06-10T04:52:50;14.30;99.90
28614;DHT22;15806;53.548;9.964;2023-06-10T04:54:31;14.40;99.90
28614;DHT22;15806;53.548;9.964;2023-06-10T04:56:11;14.30;99.90
28614;DHT22;15806;53.548;9.964;2023-06-10T04:57:52;14.40;99.90
28614;DHT22;15806;53.548;9.964;2023-06-10T04:59:32;14.40;99.90
28614;DHT22;15806;53.548;9.964;2023-06-10T05:01:12;14.40;99.90
28614;DHT22;15806;53.548;9.964;2023-06-10T05:02:53;14.50;99.90
28614;DHT22;15806;53.548;9.964;2023-06-10T05:04:33;14.60;99.90
28614;DHT22;15806;53.548;9.964;2023-06-10T05:06:14;14.60;99.90
28614;DHT22;15806;53.548;9.964;2023-06-10T05:07:54;14.60;99.90
28614;DHT22;15806;53.548;9.964;2023-06-10T05:09:35;14.60;99.90
28614;DHT22;15806;53.548;9.964;2023-06-10T05:11:15;14.70;99.90
28614;DHT22;15806;53.548;9.964;2023-06-10T05:12:55;14.80;99.90
28614;DHT22;15806;53.548;9.964;2023-06-10T05:14:36;14.80;99.90
28614;DHT22;15806;53.548;9.964;2023-06-10T05:16:16;14.80;99.90
28614;DHT22;15806;53.548;9.964;2023-06-10T05:17:57;15.00;99.90
28614;DHT22;15806;53.548;9.964;2023-06-10T05:19:37;15.00;99.90
28614;DHT22;15806;53.548;9.964;2023-06-10T05:21:17;15.00;99.90
28614;DHT22;15806;53.548;9.964;2023-06-10T05:22:58;15.00;99.90
28614;DHT22;15806;53.548;9.964;2023-06-10T05:24:38;15.00;99.90
28614;DHT22;15806;53.548;9.964;2023-06-10T05:26:18;14.90;99.90
28614;DHT22;15806;53.548;9.964;2023-06-10T05:27:59;15.00;99.90
28614;DHT22;15806;53.548;9.964;2023-06-10T05:29:39;15.00;99.90
28614;DHT22;15806;53.548;9.964;2023-06-10T05:31:20;15.00;99.90
28614;DHT22;15806;53.548;9.964;2023-06-10T05:33:00;15.00;99.90
28614;DHT22;15806;53.548;9.964;2023-06-10T05:34:40;15.00;99.90
28614;DHT22;15806;53.548;9.964;2023-06-10T05:36:21;15.10;99.90
28614;DHT22;15806;53.548;9.964;2023-06-10T05:38:02;15.10;99.90
28614;DHT22;15806;53.548;9.964;2023-06-10T05:39:42;15.10;99.90
28614;DHT22;15806;53.548;9.964;2023-06-10T05:41:23;15.20;99.90
28614;DHT22;15806;53.548;9.964;2023-06-10T05:43:03;15.20;99.90
28614;DHT22;15806;53.548;9.964;2023-06-10T05:44:43;15.30;99.90
28614;DHT22;15806;53.548;9.964;2023-06-10T05:46:24;15.30;99.90
28614;DHT22;15806;53.548;9.964;2023-06-10T05:48:04;15.20;99.90
28614;DHT22;15806;53.548;9.964;2023-06-10T05:49:45;15.30;99.90
28614;DHT22;15806;53.548;9.964;2023-06-10T05:51:25;15.30;92.10
28614;DHT22;15806;53.548;9.964;2023-06-10T05:53:05;15.30;1.00
28614;DHT22;15806;53.548;9.964;2023-06-10T05:54:46;15.30;1.00
28614;DHT22;15806;53.548;9.964;2023-06-10T05:56:26;15.30;1.00
28614;DHT22;15806;53.548;9.964;2023-06-10T05:58:07;15.40;99.90
28614;DHT22;15806;53.548;9.964;2023-06-10T05:59:47;15.40;99.90
28614;DHT22;15806;53.548;9.964;2023-06-10T06:01:27;15.40;99.90
28614;DHT22;15806;53.548;9.964;2023-06-10T06:03:08;15.50;1.00
28614;DHT22;15806;53.548;9.964;2023-06-10T06:04:50;15.60;99.90
28614;DHT22;15806;53.548;9.964;2023-06-10T06:06:30;15.60;51.70
28614;DHT22;15806;53.548;9.964;2023-06-10T06:08:11;15.50;37.50
28614;DHT22;15806;53.548;9.964;2023-06-10T06:09:51;15.50;99.90
28614;DHT22;15806;53.548;9.964;2023-06-10T06:11:33;15.70;1.00
28614;DHT22;15806;53.548;9.964;2023-06-10T06:13:13;15.70;99.90
28614;DHT22;15806;53.548;9.964;2023-06-10T06:14:54;15.80;78.00
28614;DHT22;15806;53.548;9.964;2023-06-10T06:16:34;15.80;1.00
28614;DHT22;15806;53.548;9.964;2023-06-10T06:18:15;15.80;99.90
28614;DHT22;15806;53.548;9.964;2023-06-10T06:19:55;15.90;99.90
28614;DHT22;15806;53.548;9.964;2023-06-10T06:21:35;15.90;99.90
28614;DHT22;15806;53.548;9.964;2023-06-10T06:23:16;15.90;1.00
28614;DHT22;15806;53.548;9.964;2023-06-10T06:24:56;15.90;1.00
28614;DHT22;15806;53.548;9.964;2023-06-10T06:26:37;16.00;99.90
28614;DHT22;15806;53.548;9.964;2023-06-10T06:28:17;16.00;74.60
28614;DHT22;15806;53.548;9.964;2023-06-10T06:29:57;16.00;10.00
28614;DHT22;15806;53.548;9.964;2023-06-10T06:31:38;16.00;1.00
28614;DHT22;15806;53.548;9.964;2023-06-10T06:33:18;16.00;1.00
28614;DHT22;15806;53.548;9.964;2023-06-10T06:34:58;16.10;1.00
28614;DHT22;15806;53.548;9.964;2023-06-10T06:36:39;16.20;99.90
28614;DHT22;15806;53.548;9.964;2023-06-10T06:38:19;16.60;1.00
28614;DHT22;15806;53.548;9.964;2023-06-10T06:40:00;17.30;99.90
28614;DHT22;15806;53.548;9.964;2023-06-10T06:41:40;18.00;1.00
28614;DHT22;15806;53.548;9.964;2023-06-10T06:43:21;18.00;1.00
28614;DHT22;15806;53.548;9.964;2023-06-10T06:45:01;17.50;99.90
28614;DHT22;15806;53.548;9.964;2023-06-10T06:46:42;17.00;1.00
28614;DHT22;15806;53.548;9.964;2023-06-10T06:48:22;17.20;22.30
28614;DHT22;15806;53.548;9.964;2023-06-10T06:50:02;18.30;1.00
28614;DHT22;15806;53.548;9.964;2023-06-10T06:51:43;19.10;1.00
28614;DHT22;15806;53.548;9.964;2023-06-10T06:53:23;19.20;99.90
28614;DHT22;15806;53.548;9.964;2023-06-10T06:55:04;19.30;1.00
28614;DHT22;15806;53.548;9.964;2023-06-10T06:56:44;20.00;1.00
28614;DHT22;15806;53.548;9.964;2023-06-10T06:58:25;20.20;99.90
28614;DHT22;15806;53.548;9.964;2023-06-10T07:00:05;20.60;99.90
28614;DHT22;15806;53.548;9.964;2023-06-10T07:01:46;20.60;99.90
28614;DHT22;15806;53.548;9.964;2023-06-10T07:03:26;20.80;99.90
28614;DHT22;15806;53.548;9.964;2023-06-10T07:05:07;21.20;99.50
28614;DHT22;15806;53.548;9.964;2023-06-10T07:06:48;21.40;1.00
28614;DHT22;15806;53.548;9.964;2023-06-10T07:08:28;21.80;1.00
28614;DHT22;15806;53.548;9.964;2023-06-10T07:10:08;21.70;1.00
28614;DHT22;15806;53.548;9.964;2023-06-10T07:11:49;21.90;1.00
28614;DHT22;15806;53.548;9.964;2023-06-10T07:13:29;21.40;1.00
28614;DHT22;15806;53.548;9.964;2023-06-10T07:15:10;21.10;1.00
28614;DHT22;15806;53.548;9.964;2023-06-10T07:16:50;21.00;1.00
28614;DHT22;15806;53.548;9.964;2023-06-10T07:18:30;21.00;1.00
28614;DHT22;15806;53.548;9.964;2023-06-10T07:20:11;22.00;1.00
28614;DHT22;15806;53.548;9.964;2023-06-10T07:21:52;22.60;1.00
28614;DHT22;15806;53.548;9.964;2023-06-10T07:23:32;23.70;1.00
28614;DHT22;15806;53.548;9.964;2023-06-10T07:25:12;23.50;1.00
28614;DHT22;15806;53.548;9.964;2023-06-10T07:26:53;23.20;1.00
28614;DHT22;15806;53.548;9.964;2023-06-10T07:28:33;23.60;99.90
28614;DHT22;15806;53.548;9.964;2023-06-10T07:30:13;22.20;1.00
28614;DHT22;15806;53.548;9.964;2023-06-10T07:31:54;22.60;1.00
28614;DHT22;15806;53.548;9.964;2023-06-10T07:33:34;23.70;1.00
28614;DHT22;15806;53.548;9.964;2023-06-10T07:35:15;24.20;99.90
28614;DHT22;15806;53.548;9.964;2023-06-10T07:36:55;23.00;99.90
28614;DHT22;15806;53.548;9.964;2023-06-10T07:38:36;24.10;99.90
28614;DHT22;15806;53.548;9.964;2023-06-10T07:40:16;24.60;99.90
28614;DHT22;15806;53.548;9.964;2023-06-10T07:41:57;25.10;99.90
28614;DHT22;15806;53.548;9.964;2023-06-10T07:43:37;26.10;99.90
28614;DHT22;15806;53.548;9.964;2023-06-10T07:45:18;26.20;99.90
28614;DHT22;15806;53.548;9.964;2023-06-10T07:46:58;26.70;99.90
28614;DHT22;15806;53.548;9.964;2023-06-10T07:48:42;27.40;99.90
28614;DHT22;15806;53.548;9.964;2023-06-10T07:50:22;27.10;99.90
28614;DHT22;15806;53.548;9.964;2023-06-10T07:52:02;27.60;99.90
28614;DHT22;15806;53.548;9.964;2023-06-10T07:53:43;26.40;99.90
28614;DHT22;15806;53.548;9.964;2023-06-10T07:55:23;26.40;99.90
28614;DHT22;15806;53.548;9.964;2023-06-10T07:57:04;27.40;99.90
28614;DHT22;15806;53.548;9.964;2023-06-10T07:58:44;27.50;99.90
28614;DHT22;15806;53.548;9.964;2023-06-10T08:00:25;25.80;99.90
28614;DHT22;15806;53.548;9.964;2023-06-10T08:02:05;24.50;99.90
28614;DHT22;15806;53.548;9.964;2023-06-10T08:03:47;25.30;99.90
28614;DHT22;15806;53.548;9.964;2023-06-10T08:05:27;25.20;99.90
28614;DHT22;15806;53.548;9.964;2023-06-10T08:07:08;25.40;99.90
28614;DHT22;15806;53.548;9.964;2023-06-10T08:08:48;26.10;99.90
28614;DHT22;15806;53.548;9.964;2023-06-10T08:10:29;27.60;99.90
28614;DHT22;15806;53.548;9.964;2023-06-10T08:12:09;28.00;99.90
28614;DHT22;15806;53.548;9.964;2023-06-10T08:13:50;27.20;99.90
28614;DHT22;15806;53.548;9.964;2023-06-10T08:15:30;27.90;99.90
28614;DHT22;15806;53.548;9.964;2023-06-10T08:17:11;28.20;99.90
28614;DHT22;15806;53.548;9.964;2023-06-10T08:18:51;27.80;99.90
28614;DHT22;15806;53.548;9.964;2023-06-10T08:20:31;27.80;99.90
28614;DHT22;15806;53.548;9.964;2023-06-10T08:22:12;28.70;99.90
28614;DHT22;15806;53.548;9.964;2023-06-10T08:23:53;29.80;99.90
28614;DHT22;15806;53.548;9.964;2023-06-10T08:25:33;30.90;94.00
28614;DHT22;15806;53.548;9.964;2023-06-10T08:27:13;30.90;71.30
28614;DHT22;15806;53.548;9.964;2023-06-10T08:28:54;30.60;65.10
28614;DHT22;15806;53.548;9.964;2023-06-10T08:30:34;30.60;58.80
28614;DHT22;15806;53.548;9.964;2023-06-10T08:32:15;29.60;59.20
28614;DHT22;15806;53.548;9.964;2023-06-10T08:33:55;30.20;54.90
28614;DHT22;15806;53.548;9.964;2023-06-10T08:35:36;30.90;52.30
28614;DHT22;15806;53.548;9.964;2023-06-10T08:37:16;30.80;42.50
28614;DHT22;15806;53.548;9.964;2023-06-10T08:38:56;31.30;38.70
28614;DHT22;15806;53.548;9.964;2023-06-10T08:40:37;32.20;31.50
28614;DHT22;15806;53.548;9.964;2023-06-10T08:44:08;32.40;11.70
28614;DHT22;15806;53.548;9.964;2023-06-10T08:45:49;31.50;11.60
28614;DHT22;15806;53.548;9.964;2023-06-10T08:47:30;30.30;19.40
28614;DHT22;15806;53.548;9.964;2023-06-10T08:49:18;30.00;28.90
28614;DHT22;15806;53.548;9.964;2023-06-10T08:50:59;29.90;24.80
28614;DHT22;15806;53.548;9.964;2023-06-10T08:52:41;28.50;40.10
28614;DHT22;15806;53.548;9.964;2023-06-10T08:54:25;27.90;76.50
28614;DHT22;15806;53.548;9.964;2023-06-10T08:56:07;28.90;65.90
28614;DHT22;15806;53.548;9.964;2023-06-10T08:57:48;29.30;70.40
28614;DHT22;15806;53.548;9.964;2023-06-10T08:59:29;29.40;52.00
28614;DHT22;15806;53.548;9.964;2023-06-10T09:01:09;28.30;54.20
28614;DHT22;15806;53.548;9.964;2023-06-10T09:02:50;27.40;99.90
28614;DHT22;15806;53.548;9.964;2023-06-10T09:04:31;27.90;83.70
28614;DHT22;15806;53.548;9.964;2023-06-10T09:06:12;28.30;88.00
28614;DHT22;15806;53.548;9.964;2023-06-10T09:07:53;27.90;91.60
28614;DHT22;15806;53.548;9.964;2023-06-10T09:09:33;27.90;94.90
28614;DHT22;15806;53.548;9.964;2023-06-10T09:11:14;27.90;88.70
28614;DHT22;15806;53.548;9.964;2023-06-10T09:12:55;26.80;99.90
28614;DHT22;15806;53.548;9.964;2023-06-10T09:14:35;27.00;99.90
28614;DHT22;15806;53.548;9.964;2023-06-10T09:16:16;27.40;99.90
28614;DHT22;15806;53.548;9.964;2023-06-10T09:17:56;28.00;99.90
28614;DHT22;15806;53.548;9.964;2023-06-10T09:19:38;29.00;93.70
28614;DHT22;15806;53.548;9.964;2023-06-10T09:21:18;28.60;69.40
28614;DHT22;15806;53.548;9.964;2023-06-10T09:22:59;29.50;55.10
28614;DHT22;15806;53.548;9.964;2023-06-10T09:24:40;29.50;50.90
28614;DHT22;15806;53.548;9.964;2023-06-10T09:26:20;30.70;51.00
28614;DHT22;15806;53.548;9.964;2023-06-10T09:28:14;32.10;22.10
28614;DHT22;15806;53.548;9.964;2023-06-10T09:29:55;33.30;11.90
28614;DHT22;15806;53.548;9.964;2023-06-10T09:31:35;34.50;1.00
28614;DHT22;15806;53.548;9.964;2023-06-10T09:33:16;33.90;1.00
28614;DHT22;15806;53.548;9.964;2023-06-10T09:34:56;32.40;1.00
28614;DHT22;15806;53.548;9.964;2023-06-10T09:36:38;32.00;1.00
28614;DHT22;15806;53.548;9.964;2023-06-10T09:38:19;32.00;1.00
28614;DHT22;15806;53.548;9.964;2023-06-10T09:40:01;32.50;1.00
28614;DHT22;15806;53.548;9.964;2023-06-10T09:41:42;33.10;1.00
28614;DHT22;15806;53.548;9.964;2023-06-10T09:43:23;33.30;1.00
28614;DHT22;15806;53.548;9.964;2023-06-10T09:45:18;33.80;1.00
28614;DHT22;15806;53.548;9.964;2023-06-10T09:46:58;32.20;1.00
28614;DHT22;15806;53.548;9.964;2023-06-10T09:48:42;30.60;1.00
28614;DHT22;15806;53.548;9.964;2023-06-10T09:50:23;29.60;8.20
28614;DHT22;15806;53.548;9.964;2023-06-10T09:52:04;30.30;5.60
28614;DHT22;15806;53.548;9.964;2023-06-10T09:53:51;30.50;1.40
28614;DHT22;15806;53.548;9.964;2023-06-10T09:55:32;30.50;2.90
28614;DHT22;15806;53.548;9.964;2023-06-10T09:57:14;31.70;1.00
28614;DHT22;15806;53.548;9.964;2023-06-10T09:58:56;31.20;1.00
28614;DHT22;15806;53.548;9.964;2023-06-10T10:00:37;30.10;1.00
28614;DHT22;15806;53.548;9.964;2023-06-10T10:02:17;30.60;3.20
28614;DHT22;15806;53.548;9.964;2023-06-10T10:03:58;31.50;1.00
28614;DHT22;15806;53.548;9.964;2023-06-10T10:05:38;32.50;1.00
28614;DHT22;15806;53.548;9.964;2023-06-10T10:07:18;33.50;1.00
28614;DHT22;15806;53.548;9.964;2023-06-10T10:08:59;34.10;1.00
28614;DHT22;15806;53.548;9.964;2023-06-10T10:10:39;33.90;1.00
28614;DHT22;15806;53.548;9.964;2023-06-10T10:12:20;32.40;1.00
28614;DHT22;15806;53.548;9.964;2023-06-10T10:14:00;30.90;1.00
28614;DHT22;15806;53.548;9.964;2023-06-10T10:15:43;30.60;1.00
28614;DHT22;15806;53.548;9.964;2023-06-10T10:17:24;30.90;1.00
28614;DHT22;15806;53.548;9.964;2023-06-10T10:19:28;31.90;1.00
28614;DHT22;15806;53.548;9.964;2023-06-10T10:21:11;30.90;1.00
28614;DHT22;15806;53.548;9.964;2023-06-10T10:22:51;30.60;1.00
28614;DHT22;15806;53.548;9.964;2023-06-10T10:24:33;28.80;2.50
28614;DHT22;15806;53.548;9.964;2023-06-10T10:26:16;29.20;18.40
28614;DHT22;15806;53.548;9.964;2023-06-10T10:28:08;30.20;9.00
28614;DHT22;15806;53.548;9.964;2023-06-10T10:29:49;29.90;5.30
28614;DHT22;15806;53.548;9.964;2023-06-10T10:31:32;30.30;1.20
28614;DHT22;15806;53.548;9.964;2023-06-10T10:33:15;31.40;4.50
28614;DHT22;15806;53.548;9.964;2023-06-10T10:36:37;33.10;1.00
28614;DHT22;15806;53.548;9.964;2023-06-10T10:38:18;33.30;1.00
28614;DHT22;15806;53.548;9.964;2023-06-10T10:39:59;32.60;1.00
28614;DHT22;15806;53.548;9.964;2023-06-10T10:41:40;32.70;1.00
28614;DHT22;15806;53.548;9.964;2023-06-10T10:43:21;32.60;1.00
28614;DHT22;15806;53.548;9.964;2023-06-10T10:45:02;31.70;1.00
28614;DHT22;15806;53.548;9.964;2023-06-10T10:46:51;32.70;1.00
28614;DHT22;15806;53.548;9.964;2023-06-10T10:48:33;33.20;1.00